Time;durP1;ratioP1;P1;durP2;ratioP2;P2;SDS_P1;SDS_P2;PMS_P1;PMS_P2;Temp;Humidity;BMP_temperature;BMP_pressure;BME280_temperature;BME280_humidity;BME280_pressure;Samples;Min_cycle;Max_cycle;Signal;HPM_P1;HPM_P2
2021/12/11 00:00:45;;;;;;;18.10;17.30;;;4.80;90.50;;;;;;5055093;28;20202;-72
2021/12/11 00:03:17;;;;;;;17.33;16.45;;;4.70;90.70;;;;;;5054459;28;20278;-72
2021/12/11 00:05:49;;;;;;;17.42;16.55;;;4.80;90.20;;;;;;5054889;28;20200;-72
2021/12/11 00:08:19;;;;;;;18.27;17.48;;;4.80;89.70;;;;;;5054832;28;20536;-71
2021/12/11 00:10:51;;;;;;;17.35;16.55;;;4.80;89.60;;;;;;5054658;28;20227;-71
2021/12/11 00:13:22;;;;;;;17.55;16.65;;;4.70;90.20;;;;;;5054324;28;20239;-72
2021/12/11 00:15:49;;;;;;;16.45;15.63;;;4.70;90.40;;;;;;5054677;28;20532;-72
2021/12/11 00:18:22;;;;;;;16.73;15.88;;;4.60;90.70;;;;;;5054548;28;20192;-72
2021/12/11 00:20:53;;;;;;;17.10;16.30;;;4.60;90.60;;;;;;5054473;28;20203;-72
2021/12/11 00:23:25;;;;;;;16.95;16.05;;;4.50;91.20;;;;;;5054204;28;20220;-72
2021/12/11 00:25:53;;;;;;;17.17;16.38;;;4.60;91.20;;;;;;5054457;28;20676;-72
2021/12/11 00:28:21;;;;;;;16.48;15.68;;;4.70;90.90;;;;;;5054316;28;20196;-72
2021/12/11 00:30:49;;;;;;;17.05;16.25;;;4.60;90.90;;;;;;5054249;28;20220;-72
2021/12/11 00:33:18;;;;;;;16.10;15.40;;;4.60;90.70;;;;;;5054121;28;20220;-72
2021/12/11 00:35:45;;;;;;;16.88;15.88;;;4.60;90.80;;;;;;5054278;28;20207;-72
2021/12/11 00:38:15;;;;;;;17.38;16.38;;;4.60;91.10;;;;;;5054289;28;20196;-72
2021/12/11 00:40:45;;;;;;;16.55;15.75;;;4.60;91.20;;;;;;5053946;28;20216;-72
2021/12/11 00:43:18;;;;;;;15.85;15.00;;;4.60;92.10;;;;;;5053632;28;20659;-72
2021/12/11 00:45:47;;;;;;;16.60;15.70;;;4.70;95.00;;;;;;5053765;28;20200;-72
2021/12/11 00:48:16;;;;;;;16.23;15.43;;;4.70;92.60;;;;;;5054109;28;20215;-72
2021/12/11 00:50:47;;;;;;;16.00;15.30;;;4.80;92.50;;;;;;5053975;28;20218;-71
2021/12/11 00:53:16;;;;;;;16.58;15.77;;;4.80;91.60;;;;;;5053902;28;20222;-71
2021/12/11 00:55:46;;;;;;;16.65;15.85;;;4.70;91.50;;;;;;5053689;28;20706;-72
2021/12/11 00:58:21;;;;;;;16.90;16.10;;;4.80;90.80;;;;;;5053913;28;20207;-72
2021/12/11 01:00:52;;;;;;;17.80;16.80;;;4.70;90.90;;;;;;5053760;28;20279;-72
2021/12/11 01:03:24;;;;;;;16.60;15.80;;;4.70;91.10;;;;;;5053671;28;20226;-72
2021/12/11 01:05:56;;;;;;;17.33;16.35;;;4.60;90.70;;;;;;5053834;28;20200;-72
2021/12/11 01:08:31;;;;;;;16.77;15.98;;;4.70;91.30;;;;;;5053270;28;20205;-72
2021/12/11 01:11:04;;;;;;;17.50;16.70;;;4.60;90.70;;;;;;5053624;28;20262;-72
2021/12/11 01:13:39;;;;;;;365.73;46.50;;;4.70;90.70;;;;;;5053395;28;20323;-72
2021/12/11 01:16:12;;;;;;;17.45;16.38;;;4.60;93.00;;;;;;5053586;28;20688;-72
2021/12/11 01:18:41;;;;;;;16.25;15.52;;;4.60;94.20;;;;;;5054126;28;20208;-71
2021/12/11 01:21:28;;;;;;;17.13;16.33;;;4.50;92.80;;;;;;5053527;28;20618;-72
2021/12/11 01:24:11;;;;;;;17.38;16.55;;;4.50;91.90;;;;;;5053113;28;20212;-71
2021/12/11 01:26:42;;;;;;;18.60;17.60;;;4.40;90.50;;;;;;5053550;28;20196;-71
2021/12/11 01:29:11;;;;;;;17.88;16.98;;;4.10;91.20;;;;;;5053162;28;20203;-72
2021/12/11 01:31:39;;;;;;;17.88;16.88;;;3.90;92.30;;;;;;5053151;28;20221;-72
2021/12/11 01:34:07;;;;;;;17.20;16.40;;;3.90;92.60;;;;;;5052888;28;20232;-72
2021/12/11 01:36:35;;;;;;;17.25;16.25;;;3.90;92.30;;;;;;5053152;28;20200;-72
2021/12/11 01:39:07;;;;;;;17.13;16.33;;;3.90;93.20;;;;;;5053102;28;20204;-71
2021/12/11 01:41:35;;;;;;;17.65;16.75;;;3.90;93.70;;;;;;5052536;28;20208;-72
2021/12/11 01:44:08;;;;;;;17.20;16.40;;;3.90;92.40;;;;;;5052817;28;20621;-72
2021/12/11 01:46:39;;;;;;;18.15;17.25;;;3.90;92.00;;;;;;5052813;28;20212;-72
2021/12/11 01:49:13;;;;;;;17.98;17.08;;;3.70;92.70;;;;;;5052875;28;20203;-71
2021/12/11 01:51:44;;;;;;;17.70;16.80;;;3.60;93.10;;;;;;5052853;28;20219;-72
2021/12/11 01:54:16;;;;;;;17.35;16.45;;;3.50;93.40;;;;;;5052550;28;20307;-72
2021/12/11 01:56:47;;;;;;;17.75;16.95;;;3.40;94.00;;;;;;5052906;28;20601;-72
2021/12/11 01:59:23;;;;;;;165.63;30.30;;;3.40;94.70;;;;;;5052728;28;20207;-72
2021/12/11 02:01:55;;;;;;;16.70;15.82;;;3.50;95.20;;;;;;5052802;28;20643;-72
2021/12/11 02:04:25;;;;;;;17.55;16.75;;;3.50;94.30;;;;;;5052427;28;20316;-71
2021/12/11 02:06:54;;;;;;;16.85;16.05;;;3.40;94.90;;;;;;5052695;28;20201;-71
2021/12/11 02:09:24;;;;;;;17.17;16.38;;;3.40;94.70;;;;;;5052728;28;20207;-72
2021/12/11 02:12:03;;;;;;;16.63;15.82;;;3.40;95.10;;;;;;5052538;28;20690;-72
2021/12/11 02:14:36;;;;;;;16.60;15.80;;;3.40;94.70;;;;;;5052395;28;20255;-72
2021/12/11 02:17:06;;;;;;;16.55;15.75;;;3.50;94.80;;;;;;5052628;28;20197;-71
2021/12/11 02:19:39;;;;;;;16.17;15.48;;;3.50;94.80;;;;;;5051879;28;20283;-72
2021/12/11 02:22:14;;;;;;;16.95;16.15;;;3.60;93.90;;;;;;5052558;28;20318;-72
2021/12/11 02:24:44;;;;;;;17.20;16.40;;;3.50;93.80;;;;;;5052455;28;20311;-71
2021/12/11 02:27:15;;;;;;;16.77;16.08;;;3.50;93.40;;;;;;5052831;28;20222;-72
2021/12/11 02:29:47;;;;;;;16.27;15.57;;;3.50;92.70;;;;;;5052693;28;20565;-72
2021/12/11 02:32:22;;;;;;;16.20;15.50;;;3.40;92.90;;;;;;5052318;28;20307;-72
2021/12/11 02:34:54;;;;;;;16.10;15.40;;;3.40;93.00;;;;;;5052152;28;20223;-71
2021/12/11 02:37:29;;;;;;;17.08;16.27;;;3.40;92.70;;;;;;5052417;28;20196;-71
2021/12/11 02:40:01;;;;;;;16.60;15.80;;;3.40;92.80;;;;;;5052112;28;20295;-72
2021/12/11 02:42:33;;;;;;;16.10;15.40;;;3.50;92.90;;;;;;5052228;28;20196;-71
2021/12/11 02:45:08;;;;;;;15.95;15.25;;;3.50;92.70;;;;;;5052148;28;20555;-71
2021/12/11 02:47:38;;;;;;;16.48;15.77;;;3.50;92.30;;;;;;5052345;28;20193;-72
2021/12/11 02:50:12;;;;;;;16.25;15.55;;;3.40;92.60;;;;;;5052253;28;20647;-72
2021/12/11 02:52:44;;;;;;;16.08;15.38;;;3.40;92.40;;;;;;5052163;28;20216;-72
2021/12/11 02:55:14;;;;;;;16.20;15.50;;;3.30;92.40;;;;;;5052244;28;20193;-72
2021/12/11 02:57:46;;;;;;;16.15;15.45;;;3.20;93.20;;;;;;5052331;28;20199;-72
2021/12/11 03:00:17;;;;;;;136.73;26.17;;;3.30;93.40;;;;;;5052161;28;20196;-72
2021/12/11 03:02:48;;;;;;;15.57;14.90;;;3.40;93.10;;;;;;5051903;28;20304;-72
2021/12/11 03:05:18;;;;;;;16.35;15.65;;;3.40;94.20;;;;;;5052138;28;20243;-72
2021/12/11 03:07:51;;;;;;;16.10;15.40;;;3.40;93.90;;;;;;5052237;28;20201;-72
2021/12/11 03:10:21;;;;;;;15.50;14.80;;;3.40;94.30;;;;;;5052141;28;20192;-72
2021/12/11 03:12:48;;;;;;;15.80;15.10;;;3.50;94.40;;;;;;5051678;28;20220;-71
2021/12/11 03:15:17;;;;;;;15.32;14.63;;;3.50;94.10;;;;;;5051982;28;20211;-71
2021/12/11 03:17:45;;;;;;;15.70;15.00;;;3.50;93.90;;;;;;5052116;28;20208;-71
2021/12/11 03:20:15;;;;;;;15.77;15.07;;;3.50;93.80;;;;;;5051913;28;20203;-71
2021/12/11 03:22:43;;;;;;;16.75;15.95;;;3.50;93.70;;;;;;5051898;28;20232;-72
2021/12/11 03:25:15;;;;;;;325.92;45.65;;;3.50;94.40;;;;;;5051829;28;20224;-72
2021/12/11 03:27:43;;;;;;;16.00;15.30;;;3.60;95.90;;;;;;5051835;28;20279;-71
2021/12/11 03:30:13;;;;;;;16.35;15.65;;;3.60;95.80;;;;;;5052056;28;20750;-71
2021/12/11 03:32:40;;;;;;;1447.07;191.68;;;3.60;94.70;;;;;;5055382;28;20216;-71
2021/12/11 03:35:09;;;;;;;130.95;24.73;;;3.60;97.50;;;;;;5055290;28;20303;-71
2021/12/11 03:37:37;;;;;;;15.43;14.73;;;3.70;99.90;;;;;;5055479;28;20196;-72
2021/12/11 03:40:06;;;;;;;16.10;15.30;;;3.70;98.80;;;;;;5054963;28;20207;-72
2021/12/11 03:42:37;;;;;;;16.38;15.68;;;3.70;95.70;;;;;;5055173;28;20283;-72
2021/12/11 03:45:08;;;;;;;16.83;15.93;;;3.60;94.70;;;;;;5055010;28;20221;-71
2021/12/11 03:47:38;;;;;;;16.95;16.17;;;3.50;95.30;;;;;;5054989;28;20205;-72
2021/12/11 03:50:11;;;;;;;17.48;16.67;;;3.60;95.20;;;;;;5055191;28;20207;-72
2021/12/11 03:52:38;;;;;;;17.33;16.52;;;3.60;94.30;;;;;;5055028;28;20589;-71
2021/12/11 03:55:06;;;;;;;839.38;113.72;;;3.70;94.20;;;;;;5054822;28;20223;-71
2021/12/11 03:57:34;;;;;;;17.25;16.45;;;3.70;95.20;;;;;;5055079;28;20197;-71
2021/12/11 04:00:01;;;;;;;139.45;27.13;;;3.70;95.50;;;;;;5055159;28;20639;-72
2021/12/11 04:02:32;;;;;;;17.25;16.45;;;3.80;95.40;;;;;;5054926;28;20193;-72
2021/12/11 04:05:01;;;;;;;17.25;16.45;;;3.90;94.70;;;;;;5054810;28;20221;-72
2021/12/11 04:07:31;;;;;;;17.48;16.67;;;3.80;94.70;;;;;;5054811;28;20196;-72
2021/12/11 04:09:58;;;;;;;16.70;15.90;;;3.90;93.90;;;;;;5054853;28;20196;-72
2021/12/11 04:12:28;;;;;;;17.80;17.00;;;3.90;95.40;;;;;;5054626;28;20226;-72
2021/12/11 04:14:57;;;;;;;17.35;16.55;;;3.90;94.80;;;;;;5054589;28;20264;-72
2021/12/11 04:17:28;;;;;;;17.05;16.25;;;3.80;94.20;;;;;;5054686;28;20192;-72
2021/12/11 04:19:57;;;;;;;17.23;16.42;;;3.80;94.10;;;;;;5054708;28;20219;-72
2021/12/11 04:22:25;;;;;;;17.10;16.30;;;3.90;93.60;;;;;;5054529;28;20188;-71
2021/12/11 04:24:52;;;;;;;17.35;16.55;;;3.90;94.40;;;;;;5054209;28;20228;-72
2021/12/11 04:27:21;;;;;;;18.95;17.67;;;3.80;96.20;;;;;;5054556;28;20662;-71
2021/12/11 04:29:51;;;;;;;580.78;79.55;;;3.80;96.50;;;;;;5054387;28;20658;-72
2021/12/11 04:32:20;;;;;;;1816.93;269.92;;;3.80;97.80;;;;;;5054176;28;20220;-72
2021/12/11 04:34:47;;;;;;;64.75;21.60;;;3.80;98.10;;;;;;5054027;28;20316;-71
2021/12/11 04:37:20;;;;;;;1830.60;249.35;;;3.80;98.40;;;;;;5054290;28;20725;-72
2021/12/11 04:39:53;;;;;;;29.88;19.05;;;3.90;99.90;;;;;;5054266;28;20251;-72
2021/12/11 04:42:31;;;;;;;17.58;16.77;;;3.90;99.30;;;;;;5053202;28;20693;-72
2021/12/11 04:44:58;;;;;;;17.25;16.45;;;3.90;98.20;;;;;;5053877;28;20212;-72
2021/12/11 04:47:34;;;;;;;19.25;18.35;;;3.90;97.50;;;;;;5053735;28;20207;-71
2021/12/11 04:50:09;;;;;;;17.95;17.15;;;4.00;96.30;;;;;;5054170;28;20196;-72
2021/12/11 04:52:48;;;;;;;18.05;17.15;;;3.90;95.60;;;;;;5054026;28;20307;-72
2021/12/11 04:55:28;;;;;;;155.77;29.65;;;3.80;94.90;;;;;;5053891;28;20769;-71
2021/12/11 04:58:25;;;;;;;1999.90;415.33;;;3.80;98.80;;;;;;5054067;28;20211;-72
2021/12/11 05:01:05;;;;;;;1472.30;233.15;;;3.90;99.90;;;;;;5053807;28;20201;-71
2021/12/11 05:04:04;;;;;;;19.83;18.00;;;3.90;99.40;;;;;;5053457;28;20312;-72
2021/12/11 05:06:44;;;;;;;924.20;110.85;;;3.90;99.90;;;;;;5053795;28;20211;-72
2021/12/11 05:12:10;;;;;;;17.65;16.70;;;3.90;98.20;;;;;;5042983;28;20218;-72
2021/12/11 05:14:37;;;;;;;18.75;17.77;;;3.90;97.70;;;;;;5053375;28;20216;-72
2021/12/11 05:17:05;;;;;;;20.33;19.13;;;3.80;97.20;;;;;;5053624;28;20574;-72
2021/12/11 05:19:33;;;;;;;560.42;74.25;;;3.90;96.80;;;;;;5053409;28;20197;-72
2021/12/11 05:22:01;;;;;;;17.70;16.80;;;4.00;96.20;;;;;;5053488;28;20283;-72
2021/12/11 05:24:28;;;;;;;126.10;26.48;;;4.00;95.00;;;;;;5053067;28;20216;-72
2021/12/11 05:26:56;;;;;;;160.65;29.67;;;3.90;94.70;;;;;;5053375;28;20203;-72
2021/12/11 05:29:23;;;;;;;22.67;18.40;;;3.90;95.20;;;;;;5053217;28;20207;-72
2021/12/11 05:31:50;;;;;;;1082.20;142.65;;;3.90;95.30;;;;;;5053183;28;20223;-72
2021/12/11 05:34:17;;;;;;;135.27;30.27;;;3.90;94.80;;;;;;5052920;28;20706;-72
2021/12/11 05:36:45;;;;;;;20.92;19.83;;;3.90;98.20;;;;;;5053045;28;20733;-72
2021/12/11 05:39:16;;;;;;;20.95;19.90;;;3.90;97.70;;;;;;5052994;28;20659;-72
2021/12/11 05:41:44;;;;;;;18.95;18.05;;;3.90;96.40;;;;;;5052526;28;20292;-72
2021/12/11 05:44:13;;;;;;;20.23;19.15;;;4.00;96.00;;;;;;5052858;28;20220;-72
2021/12/11 05:46:41;;;;;;;19.90;18.90;;;4.00;94.40;;;;;;5052784;28;20201;-72
2021/12/11 05:49:10;;;;;;;19.10;18.10;;;3.90;94.40;;;;;;5052970;28;20203;-72
2021/12/11 05:51:39;;;;;;;19.60;18.50;;;3.90;94.50;;;;;;5052840;28;20199;-72
2021/12/11 05:54:10;;;;;;;987.20;135.13;;;3.90;94.10;;;;;;5052511;28;20327;-72
2021/12/11 05:56:39;;;;;;;413.35;63.17;;;4.00;96.30;;;;;;5053079;28;20294;-72
2021/12/11 05:59:09;;;;;;;1954.40;291.95;;;3.90;98.30;;;;;;5052883;28;20633;-71
2021/12/11 06:01:38;;;;;;;1023.65;134.52;;;3.90;98.30;;;;;;5052918;28;20207;-71
2021/12/11 06:04:09;;;;;;;1057.50;129.88;;;4.00;99.90;;;;;;5052587;28;20594;-71
2021/12/11 06:06:37;;;;;;;19.90;18.90;;;3.90;99.90;;;;;;5052982;28;20284;-71
2021/12/11 06:09:06;;;;;;;21.13;19.50;;;3.90;99.80;;;;;;5052826;28;20201;-71
2021/12/11 06:11:35;;;;;;;20.23;19.17;;;4.00;99.00;;;;;;5052731;28;20284;-71
2021/12/11 06:14:02;;;;;;;21.30;20.20;;;3.90;98.10;;;;;;5052561;28;20221;-71
2021/12/11 06:16:29;;;;;;;19.60;18.52;;;3.90;97.40;;;;;;5052662;28;20210;-72
2021/12/11 06:19:01;;;;;;;18.85;17.90;;;3.90;98.40;;;;;;5052599;28;20291;-72
2021/12/11 06:21:28;;;;;;;1999.90;504.17;;;3.90;98.50;;;;;;5052534;28;20232;-71
2021/12/11 06:23:55;;;;;;;359.13;53.78;;;3.90;98.90;;;;;;5052401;28;20224;-71
2021/12/11 06:26:22;;;;;;;1999.90;538.13;;;3.90;99.90;;;;;;5052521;28;20227;-71
2021/12/11 06:28:51;;;;;;;21.48;20.27;;;3.90;99.90;;;;;;5052631;28;20283;-71
2021/12/11 06:31:19;;;;;;;17.52;16.63;;;3.90;99.90;;;;;;5052460;28;20657;-71
2021/12/11 06:33:47;;;;;;;19.83;18.65;;;3.90;98.80;;;;;;5051994;28;20216;-71
2021/12/11 06:36:15;;;;;;;20.55;19.45;;;3.80;98.10;;;;;;5052407;28;20536;-71
2021/12/11 06:38:44;;;;;;;22.63;21.33;;;3.70;96.80;;;;;;5052452;28;20211;-71
2021/12/11 06:41:13;;;;;;;21.27;20.08;;;3.60;94.70;;;;;;5051811;28;20211;-71
2021/12/11 06:43:41;;;;;;;21.60;20.40;;;3.70;94.50;;;;;;5052150;28;20222;-71
2021/12/11 06:46:10;;;;;;;21.33;19.83;;;3.60;94.80;;;;;;5051952;28;20197;-71
2021/12/11 06:48:38;;;;;;;21.67;20.02;;;3.70;94.60;;;;;;5052352;28;20650;-72
2021/12/11 06:51:06;;;;;;;21.38;20.25;;;3.80;93.40;;;;;;5052363;28;20199;-71
2021/12/11 06:53:37;;;;;;;22.40;21.20;;;3.80;92.00;;;;;;5052136;28;20224;-71
2021/12/11 06:56:07;;;;;;;23.40;22.00;;;3.70;92.50;;;;;;5052221;28;20258;-71
2021/12/11 06:58:35;;;;;;;21.50;20.30;;;3.60;92.60;;;;;;5052289;28;20292;-71
2021/12/11 07:01:03;;;;;;;22.48;21.17;;;3.60;94.70;;;;;;5052294;28;20273;-72
2021/12/11 07:03:32;;;;;;;21.90;20.67;;;3.70;94.10;;;;;;5051946;28;20690;-72
2021/12/11 07:05:59;;;;;;;22.38;21.08;;;3.70;96.60;;;;;;5053840;28;20776;-72
2021/12/11 07:08:27;;;;;;;23.23;21.92;;;3.70;95.50;;;;;;5055849;28;20292;-71
2021/12/11 07:10:54;;;;;;;23.08;21.77;;;3.70;94.60;;;;;;5055895;28;20258;-71
2021/12/11 07:13:22;;;;;;;22.83;21.52;;;3.80;93.90;;;;;;5055538;28;20599;-71
2021/12/11 07:15:49;;;;;;;22.35;21.05;;;3.80;93.80;;;;;;5055842;28;20295;-72
2021/12/11 07:18:15;;;;;;;22.92;21.63;;;3.80;93.00;;;;;;5055780;28;20287;-71
2021/12/11 07:20:44;;;;;;;22.83;21.42;;;3.70;92.30;;;;;;5055725;28;20220;-72
2021/12/11 07:23:11;;;;;;;23.27;21.98;;;3.80;92.30;;;;;;5055352;28;20208;-72
2021/12/11 07:25:44;;;;;;;23.33;21.98;;;3.70;91.90;;;;;;5055626;28;20391;-71
2021/12/11 07:28:11;;;;;;;24.13;22.42;;;3.80;91.60;;;;;;5055690;28;20199;-71
2021/12/11 07:30:42;;;;;;;22.70;21.30;;;3.60;91.50;;;;;;5055478;28;20729;-71
2021/12/11 07:33:10;;;;;;;23.23;21.90;;;3.60;92.00;;;;;;5055310;28;20220;-71
2021/12/11 07:35:39;;;;;;;24.10;22.70;;;3.70;91.80;;;;;;5055376;28;20197;-71
2021/12/11 07:38:08;;;;;;;22.30;21.10;;;3.70;91.30;;;;;;5055438;28;20207;-71
2021/12/11 07:40:38;;;;;;;23.52;22.23;;;3.60;91.80;;;;;;5054852;28;20295;-71
2021/12/11 07:43:07;;;;;;;22.00;20.70;;;3.70;92.00;;;;;;5055092;28;20220;-71
2021/12/11 07:45:35;;;;;;;22.45;21.17;;;3.70;91.80;;;;;;5055030;28;20196;-72
2021/12/11 07:48:02;;;;;;;22.88;21.48;;;3.70;91.10;;;;;;5055273;28;20201;-72
2021/12/11 07:50:29;;;;;;;23.25;21.85;;;3.70;91.20;;;;;;5055535;28;20283;-71
2021/12/11 07:52:57;;;;;;;23.98;22.58;;;3.60;91.00;;;;;;5055223;28;20217;-72
2021/12/11 07:55:25;;;;;;;25.50;23.90;;;3.60;91.40;;;;;;5055945;28;20201;-71
2021/12/11 07:57:52;;;;;;;24.33;22.70;;;3.70;91.50;;;;;;5056463;28;20201;-71
2021/12/11 08:00:23;;;;;;;25.42;23.90;;;3.70;91.60;;;;;;5056209;28;20201;-71
2021/12/11 08:02:51;;;;;;;25.27;23.67;;;3.60;92.10;;;;;;5055351;28;20201;-71
2021/12/11 08:05:18;;;;;;;24.27;22.85;;;3.70;91.40;;;;;;5055498;28;20287;-71
2021/12/11 08:07:45;;;;;;;25.52;23.83;;;3.70;91.50;;;;;;5054729;28;20199;-71
2021/12/11 08:10:18;;;;;;;24.77;23.17;;;3.80;91.80;;;;;;5054932;28;20625;-72
2021/12/11 08:12:46;;;;;;;25.20;23.70;;;3.70;90.70;;;;;;5054577;28;20311;-71
2021/12/11 08:15:15;;;;;;;27.15;25.15;;;3.70;91.20;;;;;;5054614;28;20655;-72
2021/12/11 08:17:42;;;;;;;24.98;23.27;;;3.80;91.20;;;;;;5053500;28;20196;-72
2021/12/11 08:20:11;;;;;;;25.48;23.88;;;3.90;91.50;;;;;;5054724;28;20201;-72
2021/12/11 08:22:39;;;;;;;26.42;24.73;;;3.90;90.90;;;;;;5054550;28;20200;-72
2021/12/11 08:25:07;;;;;;;29.70;27.60;;;3.90;90.70;;;;;;5054337;28;20678;-72
2021/12/11 08:27:36;;;;;;;26.88;25.15;;;3.80;90.90;;;;;;5054441;28;20255;-71
2021/12/11 08:30:06;;;;;;;28.98;26.98;;;3.90;92.40;;;;;;5054376;28;20254;-72
2021/12/11 08:32:33;;;;;;;28.15;26.15;;;4.00;90.60;;;;;;5054438;28;20248;-72
2021/12/11 08:35:00;;;;;;;28.20;26.30;;;4.00;90.20;;;;;;5054112;28;20686;-72
2021/12/11 08:37:27;;;;;;;28.38;26.48;;;4.00;90.00;;;;;;5054327;28;20196;-72
2021/12/11 08:39:54;;;;;;;28.88;26.85;;;4.10;89.90;;;;;;5054122;28;20196;-72
2021/12/11 08:42:25;;;;;;;27.58;25.45;;;4.10;90.30;;;;;;5053777;28;20216;-71
2021/12/11 08:45:03;;;;;;;29.20;26.90;;;4.10;90.80;;;;;;5053924;28;20223;-72
2021/12/11 08:47:31;;;;;;;37.85;27.02;;;4.20;90.60;;;;;;5053820;28;20574;-72
2021/12/11 08:49:59;;;;;;;748.33;98.43;;;4.10;93.50;;;;;;5054149;28;20650;-72
2021/12/11 08:52:29;;;;;;;28.85;26.58;;;4.10;95.20;;;;;;5053875;28;20673;-72
2021/12/11 08:54:57;;;;;;;28.90;26.83;;;4.30;93.30;;;;;;5053746;28;20307;-72
2021/12/11 08:57:28;;;;;;;28.98;26.80;;;4.50;91.30;;;;;;5054050;28;20203;-72
2021/12/11 08:59:58;;;;;;;29.42;27.23;;;4.40;90.80;;;;;;5053911;28;20624;-72
2021/12/11 09:02:28;;;;;;;29.25;27.15;;;4.40;90.60;;;;;;5053893;28;20196;-72
2021/12/11 09:05:01;;;;;;;29.90;27.73;;;4.40;90.50;;;;;;5053650;28;20309;-71
2021/12/11 09:07:32;;;;;;;28.15;25.95;;;4.50;90.10;;;;;;5053683;28;20689;-72
2021/12/11 09:10:03;;;;;;;49.70;29.55;;;4.60;89.70;;;;;;5053726;28;20201;-72
2021/12/11 09:12:34;;;;;;;27.80;25.90;;;4.70;89.60;;;;;;5053509;28;20292;-72
2021/12/11 09:15:07;;;;;;;27.63;25.63;;;4.70;91.10;;;;;;5053495;28;20642;-72
2021/12/11 09:17:40;;;;;;;28.20;26.15;;;4.70;89.50;;;;;;5053509;28;20205;-72
2021/12/11 09:20:12;;;;;;;28.25;26.30;;;4.70;90.00;;;;;;5053438;28;20745;-72
2021/12/11 09:22:43;;;;;;;29.63;26.85;;;4.80;89.60;;;;;;5053434;28;20271;-72
2021/12/11 09:25:16;;;;;;;25.77;24.02;;;4.80;89.40;;;;;;5053256;28;20239;-72
2021/12/11 09:27:50;;;;;;;28.10;26.30;;;4.90;88.60;;;;;;5053443;28;20236;-72
2021/12/11 09:30:24;;;;;;;28.67;26.70;;;5.00;87.60;;;;;;5053182;28;20266;-71
2021/12/11 09:32:55;;;;;;;28.90;26.63;;;4.90;87.90;;;;;;5053007;28;20222;-71
2021/12/11 09:35:27;;;;;;;27.08;25.27;;;4.90;87.80;;;;;;5053373;28;20228;-71
2021/12/11 09:37:58;;;;;;;36.55;26.33;;;5.00;87.70;;;;;;5053274;28;20192;-71
2021/12/11 09:40:50;;;;;;;208.38;44.90;;;5.00;88.80;;;;;;5052491;28;20251;-72
2021/12/11 09:43:32;;;;;;;26.85;25.15;;;5.00;92.60;;;;;;5052848;28;20717;-72
2021/12/11 09:46:01;;;;;;;25.02;23.23;;;5.10;89.10;;;;;;5052862;28;20192;-72
2021/12/11 09:48:28;;;;;;;27.10;25.42;;;5.30;88.10;;;;;;5052943;28;20295;-72
2021/12/11 09:51:02;;;;;;;26.33;24.52;;;5.30;86.70;;;;;;5053085;28;20254;-72
2021/12/11 09:53:32;;;;;;;25.98;24.27;;;5.30;88.80;;;;;;5052530;28;20858;-72
2021/12/11 09:56:00;;;;;;;27.77;26.05;;;5.40;87.30;;;;;;5053074;28;20617;-72
2021/12/11 09:58:34;;;;;;;26.90;25.05;;;5.40;85.80;;;;;;5052911;28;20200;-72
2021/12/11 10:01:08;;;;;;;26.95;25.25;;;5.50;85.10;;;;;;5052856;28;20649;-72
2021/12/11 10:03:45;;;;;;;26.20;24.60;;;5.50;85.70;;;;;;5052452;28;20298;-72
2021/12/11 10:06:37;;;;;;;26.00;24.40;;;5.60;83.70;;;;;;5052819;28;20680;-71
2021/12/11 10:09:17;;;;;;;25.35;23.70;;;5.50;84.80;;;;;;5052724;28;20279;-72
2021/12/11 10:11:46;;;;;;;26.38;24.45;;;5.50;84.50;;;;;;5052555;28;20199;-71
2021/12/11 10:14:17;;;;;;;23.60;22.20;;;5.60;84.40;;;;;;5052304;28;20221;-72
2021/12/11 10:16:47;;;;;;;25.77;24.17;;;5.70;83.70;;;;;;5052812;28;20205;-71
2021/12/11 10:19:17;;;;;;;23.90;22.55;;;5.70;83.70;;;;;;5052563;28;20659;-72
2021/12/11 10:21:47;;;;;;;25.38;23.80;;;5.60;84.30;;;;;;5052502;28;20287;-72
2021/12/11 10:24:19;;;;;;;24.17;22.67;;;5.70;84.10;;;;;;5052258;28;20220;-72
2021/12/11 10:26:46;;;;;;;24.70;23.00;;;5.70;82.20;;;;;;5052531;28;20200;-72
2021/12/11 10:29:16;;;;;;;22.55;21.25;;;5.80;82.00;;;;;;5052397;28;20218;-72
2021/12/11 10:31:46;;;;;;;24.40;22.98;;;5.80;82.20;;;;;;5052405;28;20196;-72
2021/12/11 10:34:17;;;;;;;24.40;22.80;;;5.80;81.70;;;;;;5052191;28;20224;-72
2021/12/11 10:36:47;;;;;;;25.00;23.40;;;5.80;82.30;;;;;;5052403;28;20193;-72
2021/12/11 10:39:17;;;;;;;25.80;24.30;;;5.60;81.40;;;;;;5052405;28;20696;-72
2021/12/11 10:41:45;;;;;;;24.95;23.35;;;5.50;83.20;;;;;;5054644;28;20208;-72
2021/12/11 10:44:17;;;;;;;23.98;22.67;;;5.40;82.70;;;;;;5056180;28;20689;-71
2021/12/11 10:46:47;;;;;;;24.08;22.67;;;5.60;82.30;;;;;;5056222;28;20654;-72
2021/12/11 10:49:17;;;;;;;24.63;23.13;;;5.70;82.00;;;;;;5056388;28;20306;-72
2021/12/11 10:51:48;;;;;;;22.83;21.52;;;5.70;81.60;;;;;;5056289;28;20200;-71
2021/12/11 10:54:18;;;;;;;23.40;22.00;;;5.60;82.20;;;;;;5056140;28;20228;-72
2021/12/11 10:56:46;;;;;;;22.80;21.50;;;5.70;82.10;;;;;;5056439;28;20207;-72
2021/12/11 10:59:17;;;;;;;23.52;22.13;;;5.70;82.00;;;;;;5056170;28;20196;-71
2021/12/11 11:01:47;;;;;;;25.55;24.05;;;5.70;81.70;;;;;;5056100;28;20196;-72
2021/12/11 11:04:18;;;;;;;25.08;23.50;;;5.30;82.40;;;;;;5055853;28;20248;-72
2021/12/11 11:06:45;;;;;;;24.67;22.80;;;5.20;83.20;;;;;;5056153;28;20197;-71
2021/12/11 11:09:15;;;;;;;24.13;22.60;;;5.40;83.50;;;;;;5056003;28;20199;-72
2021/12/11 11:11:43;;;;;;;23.33;21.90;;;5.50;83.40;;;;;;5055927;28;20200;-72
2021/12/11 11:14:12;;;;;;;22.80;21.50;;;5.70;83.50;;;;;;5055487;28;20232;-72
2021/12/11 11:16:45;;;;;;;23.75;22.35;;;5.80;82.20;;;;;;5055852;28;20199;-72
2021/12/11 11:19:12;;;;;;;23.67;22.27;;;5.80;81.60;;;;;;5055816;28;20204;-72
2021/12/11 11:21:42;;;;;;;24.58;23.17;;;5.80;80.70;;;;;;5055821;28;20291;-72
2021/12/11 11:24:11;;;;;;;24.90;23.38;;;5.70;80.30;;;;;;5055401;28;20216;-72
2021/12/11 11:26:43;;;;;;;23.58;22.27;;;5.70;80.00;;;;;;5055840;28;20196;-71
2021/12/11 11:29:12;;;;;;;23.45;22.15;;;5.70;80.50;;;;;;5055611;28;20287;-72
2021/12/11 11:31:42;;;;;;;23.95;22.55;;;5.80;80.60;;;;;;5055640;28;20197;-72
2021/12/11 11:34:17;;;;;;;24.33;22.92;;;5.70;80.20;;;;;;5055189;28;20227;-72
2021/12/11 11:36:44;;;;;;;23.50;22.00;;;5.70;79.00;;;;;;5055557;28;20204;-72
2021/12/11 11:39:16;;;;;;;23.10;21.90;;;5.80;79.60;;;;;;5055301;28;20200;-72
2021/12/11 11:41:47;;;;;;;25.30;23.70;;;5.80;78.90;;;;;;5054869;28;20204;-72
2021/12/11 11:44:15;;;;;;;24.27;22.80;;;5.70;78.50;;;;;;5055196;28;20718;-72
2021/12/11 11:46:45;;;;;;;25.25;23.60;;;5.60;79.20;;;;;;5055098;28;20203;-72
2021/12/11 11:49:14;;;;;;;22.70;21.40;;;5.60;79.80;;;;;;5055275;28;20193;-72
2021/12/11 11:51:43;;;;;;;24.55;22.90;;;5.80;79.50;;;;;;5054999;28;20201;-72
2021/12/11 11:54:13;;;;;;;24.70;23.30;;;5.90;79.10;;;;;;5054661;28;20315;-72
2021/12/11 11:56:44;;;;;;;23.67;22.27;;;5.90;78.70;;;;;;5055380;28;20291;-72
2021/12/11 11:59:12;;;;;;;24.15;22.65;;;5.90;78.10;;;;;;5055155;28;20291;-72
2021/12/11 12:01:42;;;;;;;24.17;22.77;;;5.70;78.80;;;;;;5055012;28;20286;-72
2021/12/11 12:04:15;;;;;;;24.90;23.40;;;5.70;78.70;;;;;;5054734;28;20217;-72
2021/12/11 12:06:43;;;;;;;24.88;23.17;;;5.60;79.60;;;;;;5055087;28;20200;-72
2021/12/11 12:09:12;;;;;;;25.30;23.83;;;5.70;80.00;;;;;;5054785;28;20615;-72
2021/12/11 12:11:40;;;;;;;24.05;22.55;;;5.80;79.30;;;;;;5054855;28;20200;-72
2021/12/11 12:14:11;;;;;;;24.48;23.00;;;5.80;78.70;;;;;;5054607;28;20227;-72
2021/12/11 12:16:40;;;;;;;25.10;23.60;;;5.70;78.80;;;;;;5054823;28;20197;-72
2021/12/11 12:19:10;;;;;;;24.90;23.40;;;5.80;78.30;;;;;;5054662;28;20205;-72
2021/12/11 12:21:40;;;;;;;25.50;24.10;;;5.70;78.30;;;;;;5054754;28;20288;-72
2021/12/11 12:24:08;;;;;;;26.35;24.75;;;5.70;78.90;;;;;;5054564;28;20296;-72
2021/12/11 12:26:37;;;;;;;25.17;23.75;;;5.70;80.80;;;;;;5054650;28;20212;-72
2021/12/11 12:29:06;;;;;;;25.35;23.88;;;5.80;79.50;;;;;;5054556;28;20233;-72
2021/12/11 12:31:37;;;;;;;26.15;24.10;;;6.00;76.50;;;;;;5054470;28;20193;-72
2021/12/11 12:34:05;;;;;;;26.30;24.60;;;5.90;76.60;;;;;;5054261;28;20232;-72
2021/12/11 12:36:34;;;;;;;24.95;23.35;;;5.80;76.80;;;;;;5054245;28;20200;-72
2021/12/11 12:39:01;;;;;;;23.98;22.67;;;5.70;78.60;;;;;;5054527;28;20203;-71
2021/12/11 12:41:31;;;;;;;25.35;23.65;;;5.80;78.10;;;;;;5053896;28;20390;-72
2021/12/11 12:44:19;;;;;;;23.67;22.27;;;5.70;77.40;;;;;;5054063;28;20209;-72
2021/12/11 12:46:56;;;;;;;25.63;24.13;;;5.70;78.10;;;;;;5053987;28;20666;-72
2021/12/11 12:49:25;;;;;;;27.20;25.50;;;5.80;77.90;;;;;;5054115;28;20196;-72
2021/12/11 12:51:54;;;;;;;25.73;24.17;;;5.70;78.20;;;;;;5054158;28;20218;-72
2021/12/11 12:54:23;;;;;;;25.05;23.75;;;5.80;78.40;;;;;;5054072;28;20220;-72